sensor_id;sensor_type;location;lat;lon;timestamp;pressure;altitude;pressure_sealevel;temperature;humidity
10474;BME280;5284;50.446;7.904;2022-08-01T00:02:27;98461.31;;;20.77;91.23
10474;BME280;5284;50.446;7.904;2022-08-01T00:07:31;98461.22;;;20.70;92.04
10474;BME280;5284;50.446;7.904;2022-08-01T00:12:34;98456.22;;;20.67;90.40
10474;BME280;5284;50.446;7.904;2022-08-01T00:17:38;98452.63;;;20.60;92.32
10474;BME280;5284;50.446;7.904;2022-08-01T00:22:42;98449.84;;;20.54;90.55
10474;BME280;5284;50.446;7.904;2022-08-01T00:27:44;98459.13;;;20.45;93.23
10474;BME280;5284;50.446;7.904;2022-08-01T00:32:48;98456.34;;;20.38;93.37
10474;BME280;5284;50.446;7.904;2022-08-01T00:37:52;98445.25;;;20.33;91.16
10474;BME280;5284;50.446;7.904;2022-08-01T00:42:55;98438.94;;;20.26;92.74
10474;BME280;5284;50.446;7.904;2022-08-01T00:47:57;98448.09;;;20.25;92.99
10474;BME280;5284;50.446;7.904;2022-08-01T00:53:02;98448.69;;;20.21;94.11
10474;BME280;5284;50.446;7.904;2022-08-01T00:58:05;98448.25;;;20.17;93.46
10474;BME280;5284;50.446;7.904;2022-08-01T01:03:12;98450.47;;;20.14;94.46
10474;BME280;5284;50.446;7.904;2022-08-01T01:08:22;98456.09;;;20.13;92.86
10474;BME280;5284;50.446;7.904;2022-08-01T01:13:33;98452.94;;;20.09;92.64
10474;BME280;5284;50.446;7.904;2022-08-01T01:18:53;98462.09;;;20.08;91.29
10474;BME280;5284;50.446;7.904;2022-08-01T01:24:07;98464.63;;;20.10;91.90
10474;BME280;5284;50.446;7.904;2022-08-01T01:29:21;98467.13;;;20.11;92.68
10474;BME280;5284;50.446;7.904;2022-08-01T01:34:28;98463.84;;;20.15;90.43
10474;BME280;5284;50.446;7.904;2022-08-01T01:39:32;98464.50;;;20.17;91.86
10474;BME280;5284;50.446;7.904;2022-08-01T01:44:38;98455.13;;;20.20;90.19
10474;BME280;5284;50.446;7.904;2022-08-01T01:49:41;98460.16;;;20.23;90.39
10474;BME280;5284;50.446;7.904;2022-08-01T01:54:48;98460.84;;;20.25;90.73
10474;BME280;5284;50.446;7.904;2022-08-01T01:59:54;98451.47;;;20.27;90.93
10474;BME280;5284;50.446;7.904;2022-08-01T02:04:59;98449.41;;;20.29;89.39
10474;BME280;5284;50.446;7.904;2022-08-01T02:10:04;98448.56;;;20.29;90.05
10474;BME280;5284;50.446;7.904;2022-08-01T02:15:11;98453.38;;;20.33;88.47
10474;BME280;5284;50.446;7.904;2022-08-01T02:20:15;98456.31;;;20.32;90.82
10474;BME280;5284;50.446;7.904;2022-08-01T02:25:23;98459.59;;;20.27;90.30
10474;BME280;5284;50.446;7.904;2022-08-01T02:30:32;98463.97;;;20.28;90.71
10474;BME280;5284;50.446;7.904;2022-08-01T02:35:37;98460.84;;;20.25;92.40
10474;BME280;5284;50.446;7.904;2022-08-01T02:41:06;98465.56;;;20.23;93.55
10474;BME280;5284;50.446;7.904;2022-08-01T02:46:16;98461.00;;;20.23;94.08
10474;BME280;5284;50.446;7.904;2022-08-01T02:51:23;98459.97;;;20.24;94.58
10474;BME280;5284;50.446;7.904;2022-08-01T02:56:27;98456.63;;;20.22;95.41
10474;BME280;5284;50.446;7.904;2022-08-01T03:01:38;98457.44;;;20.23;94.35
10474;BME280;5284;50.446;7.904;2022-08-01T03:06:42;98448.69;;;20.21;95.86
10474;BME280;5284;50.446;7.904;2022-08-01T03:11:46;98454.94;;;20.21;96.38
10474;BME280;5284;50.446;7.904;2022-08-01T03:16:52;98449.91;;;20.18;97.11
10474;BME280;5284;50.446;7.904;2022-08-01T03:21:57;98456.38;;;20.17;97.87
10474;BME280;5284;50.446;7.904;2022-08-01T03:27:02;98460.94;;;20.17;99.34
10474;BME280;5284;50.446;7.904;2022-08-01T03:32:06;98461.69;;;20.11;100.00
10474;BME280;5284;50.446;7.904;2022-08-01T03:37:14;98470.22;;;20.08;100.00
10474;BME280;5284;50.446;7.904;2022-08-01T03:42:20;98459.56;;;20.07;100.00
10474;BME280;5284;50.446;7.904;2022-08-01T03:47:31;98467.41;;;20.02;100.00
10474;BME280;5284;50.446;7.904;2022-08-01T03:52:43;98465.91;;;19.99;100.00
10474;BME280;5284;50.446;7.904;2022-08-01T03:57:47;98466.09;;;19.98;100.00
10474;BME280;5284;50.446;7.904;2022-08-01T04:02:53;98468.94;;;19.90;100.00
10474;BME280;5284;50.446;7.904;2022-08-01T04:07:56;98465.09;;;19.84;100.00
10474;BME280;5284;50.446;7.904;2022-08-01T04:13:00;98468.56;;;19.78;100.00
10474;BME280;5284;50.446;7.904;2022-08-01T04:18:05;98472.97;;;19.79;100.00
10474;BME280;5284;50.446;7.904;2022-08-01T04:23:09;98483.13;;;19.77;100.00
10474;BME280;5284;50.446;7.904;2022-08-01T04:28:13;98486.69;;;19.78;100.00
10474;BME280;5284;50.446;7.904;2022-08-01T04:33:19;98488.38;;;19.79;100.00
10474;BME280;5284;50.446;7.904;2022-08-01T04:38:25;98489.41;;;19.78;100.00
10474;BME280;5284;50.446;7.904;2022-08-01T04:43:29;98481.28;;;19.78;100.00
10474;BME280;5284;50.446;7.904;2022-08-01T04:48:36;98488.75;;;19.76;100.00
10474;BME280;5284;50.446;7.904;2022-08-01T04:53:39;98489.47;;;19.84;100.00
10474;BME280;5284;50.446;7.904;2022-08-01T04:58:42;98498.63;;;19.83;100.00
10474;BME280;5284;50.446;7.904;2022-08-01T05:03:48;98506.56;;;19.85;100.00
10474;BME280;5284;50.446;7.904;2022-08-01T05:08:51;98509.63;;;19.96;100.00
10474;BME280;5284;50.446;7.904;2022-08-01T05:13:53;98505.41;;;19.94;100.00
10474;BME280;5284;50.446;7.904;2022-08-01T05:18:58;98509.38;;;19.91;100.00
10474;BME280;5284;50.446;7.904;2022-08-01T05:24:00;98507.00;;;20.03;100.00
10474;BME280;5284;50.446;7.904;2022-08-01T05:29:03;98507.94;;;20.10;100.00
10474;BME280;5284;50.446;7.904;2022-08-01T05:34:08;98515.31;;;20.15;100.00
10474;BME280;5284;50.446;7.904;2022-08-01T05:39:15;98515.69;;;20.13;100.00
10474;BME280;5284;50.446;7.904;2022-08-01T05:44:20;98522.31;;;20.10;100.00
10474;BME280;5284;50.446;7.904;2022-08-01T05:49:24;98520.69;;;20.30;100.00
10474;BME280;5284;50.446;7.904;2022-08-01T05:54:27;98523.34;;;20.44;100.00
10474;BME280;5284;50.446;7.904;2022-08-01T05:59:30;98533.66;;;20.55;100.00
10474;BME280;5284;50.446;7.904;2022-08-01T06:04:34;98536.38;;;20.55;100.00
10474;BME280;5284;50.446;7.904;2022-08-01T06:09:37;98538.00;;;20.71;100.00
10474;BME280;5284;50.446;7.904;2022-08-01T06:14:40;98547.59;;;20.73;100.00
10474;BME280;5284;50.446;7.904;2022-08-01T06:19:44;98550.53;;;20.72;100.00
10474;BME280;5284;50.446;7.904;2022-08-01T06:24:47;98554.97;;;20.79;100.00
10474;BME280;5284;50.446;7.904;2022-08-01T06:29:50;98553.53;;;20.98;99.91
10474;BME280;5284;50.446;7.904;2022-08-01T06:34:56;98554.66;;;21.10;97.61
10474;BME280;5284;50.446;7.904;2022-08-01T06:40:00;98564.16;;;20.99;98.57
10474;BME280;5284;50.446;7.904;2022-08-01T06:45:04;98561.50;;;20.85;99.39
10474;BME280;5284;50.446;7.904;2022-08-01T06:50:09;98551.44;;;21.00;98.48
10474;BME280;5284;50.446;7.904;2022-08-01T06:55:13;98558.47;;;21.15;96.81
10474;BME280;5284;50.446;7.904;2022-08-01T07:00:18;98559.75;;;21.47;93.85
10474;BME280;5284;50.446;7.904;2022-08-01T07:05:25;98550.50;;;22.02;88.04
10474;BME280;5284;50.446;7.904;2022-08-01T07:10:28;98556.72;;;22.37;85.01
10474;BME280;5284;50.446;7.904;2022-08-01T07:15:31;98555.97;;;22.69;83.36
10474;BME280;5284;50.446;7.904;2022-08-01T07:20:37;98550.81;;;23.06;81.00
10474;BME280;5284;50.446;7.904;2022-08-01T07:25:53;98557.31;;;23.12;80.03
10474;BME280;5284;50.446;7.904;2022-08-01T07:31:01;98545.16;;;23.46;77.95
10474;BME280;5284;50.446;7.904;2022-08-01T07:36:05;98551.63;;;23.71;76.35
10474;BME280;5284;50.446;7.904;2022-08-01T07:41:09;98554.34;;;24.54;73.37
10474;BME280;5284;50.446;7.904;2022-08-01T07:46:12;98554.81;;;24.32;72.48
10474;BME280;5284;50.446;7.904;2022-08-01T07:51:17;98552.81;;;24.08;73.11
10474;BME280;5284;50.446;7.904;2022-08-01T07:56:19;98556.44;;;23.95;72.54
10474;BME280;5284;50.446;7.904;2022-08-01T08:01:26;98562.47;;;24.04;72.92
10474;BME280;5284;50.446;7.904;2022-08-01T08:06:30;98559.69;;;24.23;71.90
10474;BME280;5284;50.446;7.904;2022-08-01T08:11:33;98564.97;;;24.05;72.18
10474;BME280;5284;50.446;7.904;2022-08-01T08:16:36;98566.91;;;23.98;72.01
10474;BME280;5284;50.446;7.904;2022-08-01T08:21:41;98553.53;;;24.34;71.33
10474;BME280;5284;50.446;7.904;2022-08-01T08:26:45;98554.41;;;24.35;71.32
10474;BME280;5284;50.446;7.904;2022-08-01T08:31:53;98554.16;;;24.36;71.33
10474;BME280;5284;50.446;7.904;2022-08-01T08:36:59;98554.16;;;24.36;70.56
10474;BME280;5284;50.446;7.904;2022-08-01T08:42:06;98556.78;;;24.18;70.83
10474;BME280;5284;50.446;7.904;2022-08-01T08:47:11;98560.63;;;25.23;67.06
10474;BME280;5284;50.446;7.904;2022-08-01T08:52:22;98565.78;;;25.31;66.91
10474;BME280;5284;50.446;7.904;2022-08-01T08:57:25;98560.81;;;25.46;66.03
10474;BME280;5284;50.446;7.904;2022-08-01T09:02:29;98567.78;;;26.27;62.73
10474;BME280;5284;50.446;7.904;2022-08-01T09:07:33;98561.31;;;26.86;61.74
10474;BME280;5284;50.446;7.904;2022-08-01T09:12:36;98557.38;;;27.12;60.20
10474;BME280;5284;50.446;7.904;2022-08-01T09:17:40;98555.81;;;26.75;60.27
10474;BME280;5284;50.446;7.904;2022-08-01T09:22:46;98556.44;;;26.59;61.13
10474;BME280;5284;50.446;7.904;2022-08-01T09:28:02;98558.03;;;26.66;60.55
10474;BME280;5284;50.446;7.904;2022-08-01T09:33:05;98559.91;;;26.66;61.32
10474;BME280;5284;50.446;7.904;2022-08-01T09:38:24;98552.97;;;26.81;61.14
10474;BME280;5284;50.446;7.904;2022-08-01T09:43:30;98562.81;;;27.00;59.82
10474;BME280;5284;50.446;7.904;2022-08-01T09:48:33;98563.75;;;26.94;60.15
10474;BME280;5284;50.446;7.904;2022-08-01T09:53:44;98560.22;;;26.76;60.37
10474;BME280;5284;50.446;7.904;2022-08-01T09:58:55;98576.06;;;26.38;61.46
10474;BME280;5284;50.446;7.904;2022-08-01T10:04:07;98570.56;;;26.02;60.71
10474;BME280;5284;50.446;7.904;2022-08-01T10:09:14;98560.78;;;27.07;59.36
10474;BME280;5284;50.446;7.904;2022-08-01T10:14:17;98563.91;;;27.63;58.11
10474;BME280;5284;50.446;7.904;2022-08-01T10:19:23;98561.66;;;27.83;58.03
10474;BME280;5284;50.446;7.904;2022-08-01T10:24:30;98557.22;;;28.05;57.55
10474;BME280;5284;50.446;7.904;2022-08-01T10:29:41;98556.75;;;28.31;55.36
10474;BME280;5284;50.446;7.904;2022-08-01T10:35:01;98550.44;;;27.85;55.55
10474;BME280;5284;50.446;7.904;2022-08-01T10:40:11;98542.72;;;27.70;56.05
10474;BME280;5284;50.446;7.904;2022-08-01T10:45:31;98545.88;;;28.02;55.27
10474;BME280;5284;50.446;7.904;2022-08-01T10:50:38;98549.59;;;27.84;53.45
10474;BME280;5284;50.446;7.904;2022-08-01T10:55:48;98532.88;;;28.59;52.80
10474;BME280;5284;50.446;7.904;2022-08-01T11:01:19;98524.59;;;28.71;51.73
10474;BME280;5284;50.446;7.904;2022-08-01T11:06:27;98529.59;;;27.95;53.56
10474;BME280;5284;50.446;7.904;2022-08-01T11:11:32;98536.03;;;28.51;51.54
10474;BME280;5284;50.446;7.904;2022-08-01T11:16:55;98532.91;;;27.97;53.72
10474;BME280;5284;50.446;7.904;2022-08-01T11:21:59;98547.34;;;27.93;54.16
10474;BME280;5284;50.446;7.904;2022-08-01T11:27:19;98528.03;;;27.88;54.87
10474;BME280;5284;50.446;7.904;2022-08-01T11:32:26;98531.25;;;28.47;52.60
10474;BME280;5284;50.446;7.904;2022-08-01T11:37:29;98533.56;;;29.39;51.17
10474;BME280;5284;50.446;7.904;2022-08-01T11:42:35;98530.81;;;30.26;48.33
10474;BME280;5284;50.446;7.904;2022-08-01T11:47:47;98527.09;;;29.99;49.97
10474;BME280;5284;50.446;7.904;2022-08-01T11:52:57;98524.84;;;29.96;49.42
10474;BME280;5284;50.446;7.904;2022-08-01T11:58:02;98520.88;;;30.03;48.83
10474;BME280;5284;50.446;7.904;2022-08-01T12:03:06;98530.91;;;30.36;47.31
10474;BME280;5284;50.446;7.904;2022-08-01T12:08:09;98535.09;;;29.63;46.67
10474;BME280;5284;50.446;7.904;2022-08-01T12:13:14;98532.50;;;29.56;47.39
10474;BME280;5284;50.446;7.904;2022-08-01T12:18:16;98523.72;;;29.10;48.28
10474;BME280;5284;50.446;7.904;2022-08-01T12:23:20;98533.22;;;28.35;50.31
10474;BME280;5284;50.446;7.904;2022-08-01T12:28:24;98528.38;;;28.53;50.13
10474;BME280;5284;50.446;7.904;2022-08-01T12:33:28;98519.75;;;29.34;48.80
10474;BME280;5284;50.446;7.904;2022-08-01T12:38:31;98526.41;;;29.38;48.78
10474;BME280;5284;50.446;7.904;2022-08-01T12:43:35;98530.19;;;29.04;49.17
10474;BME280;5284;50.446;7.904;2022-08-01T12:48:38;98532.53;;;28.56;49.34
10474;BME280;5284;50.446;7.904;2022-08-01T12:53:41;98530.84;;;28.16;49.05
10474;BME280;5284;50.446;7.904;2022-08-01T12:58:45;98540.78;;;27.82;49.78
10474;BME280;5284;50.446;7.904;2022-08-01T13:03:57;98538.97;;;27.42;49.96
10474;BME280;5284;50.446;7.904;2022-08-01T13:09:05;98544.13;;;27.61;50.08
10474;BME280;5284;50.446;7.904;2022-08-01T13:14:09;98541.38;;;27.84;50.13
10474;BME280;5284;50.446;7.904;2022-08-01T13:19:13;98535.19;;;27.89;49.91
10474;BME280;5284;50.446;7.904;2022-08-01T13:24:23;98529.69;;;27.89;50.67
10474;BME280;5284;50.446;7.904;2022-08-01T13:29:32;98526.28;;;28.72;48.30
10474;BME280;5284;50.446;7.904;2022-08-01T13:34:35;98527.63;;;28.58;49.57
10474;BME280;5284;50.446;7.904;2022-08-01T13:39:38;98531.44;;;28.29;50.45
10474;BME280;5284;50.446;7.904;2022-08-01T13:44:47;98533.50;;;28.89;49.63
10474;BME280;5284;50.446;7.904;2022-08-01T13:49:50;98533.19;;;28.46;50.85
10474;BME280;5284;50.446;7.904;2022-08-01T13:54:54;98531.28;;;28.24;51.28
10474;BME280;5284;50.446;7.904;2022-08-01T13:59:58;98536.72;;;27.96;51.77
10474;BME280;5284;50.446;7.904;2022-08-01T14:05:12;98531.81;;;28.10;51.79
10474;BME280;5284;50.446;7.904;2022-08-01T14:10:15;98538.19;;;28.49;50.96
10474;BME280;5284;50.446;7.904;2022-08-01T14:15:22;98536.34;;;28.04;52.05
10474;BME280;5284;50.446;7.904;2022-08-01T14:20:39;98547.78;;;27.32;54.12
10474;BME280;5284;50.446;7.904;2022-08-01T14:25:43;98543.88;;;26.69;57.42
10474;BME280;5284;50.446;7.904;2022-08-01T14:31:06;98550.38;;;27.16;56.80
10474;BME280;5284;50.446;7.904;2022-08-01T14:36:09;98541.03;;;28.94;53.49
10474;BME280;5284;50.446;7.904;2022-08-01T14:41:31;98543.19;;;27.90;55.21
10474;BME280;5284;50.446;7.904;2022-08-01T14:46:35;98549.09;;;27.53;55.94
10474;BME280;5284;50.446;7.904;2022-08-01T14:51:57;98547.06;;;27.25;55.91
10474;BME280;5284;50.446;7.904;2022-08-01T14:57:01;98543.56;;;27.18;56.52
10474;BME280;5284;50.446;7.904;2022-08-01T15:02:06;98535.16;;;27.02;57.11
10474;BME280;5284;50.446;7.904;2022-08-01T15:07:12;98536.94;;;26.96;57.88
10474;BME280;5284;50.446;7.904;2022-08-01T15:12:15;98541.28;;;26.74;58.74
10474;BME280;5284;50.446;7.904;2022-08-01T15:17:21;98547.75;;;26.62;57.08
10474;BME280;5284;50.446;7.904;2022-08-01T15:22:25;98546.00;;;26.67;55.56
10474;BME280;5284;50.446;7.904;2022-08-01T15:27:28;98546.50;;;27.69;53.53
10474;BME280;5284;50.446;7.904;2022-08-01T15:32:32;98559.31;;;29.98;48.69
10474;BME280;5284;50.446;7.904;2022-08-01T15:37:35;98559.88;;;33.10;43.72
10474;BME280;5284;50.446;7.904;2022-08-01T15:42:44;98566.56;;;37.29;36.83
10474;BME280;5284;50.446;7.904;2022-08-01T15:47:48;98550.28;;;33.27;41.54
10474;BME280;5284;50.446;7.904;2022-08-01T15:52:51;98553.41;;;30.49;46.71
10474;BME280;5284;50.446;7.904;2022-08-01T15:57:54;98547.81;;;29.36;49.17
10474;BME280;5284;50.446;7.904;2022-08-01T16:02:59;98552.81;;;29.39;49.45
10474;BME280;5284;50.446;7.904;2022-08-01T16:08:02;98537.97;;;28.67;50.52
10474;BME280;5284;50.446;7.904;2022-08-01T16:13:05;98546.31;;;29.61;49.10
10474;BME280;5284;50.446;7.904;2022-08-01T16:18:10;98540.81;;;31.90;45.06
10474;BME280;5284;50.446;7.904;2022-08-01T16:23:14;98554.34;;;34.34;42.69
10474;BME280;5284;50.446;7.904;2022-08-01T16:28:18;98566.41;;;38.08;36.38
10474;BME280;5284;50.446;7.904;2022-08-01T16:33:23;98562.88;;;38.61;35.59
10474;BME280;5284;50.446;7.904;2022-08-01T16:38:46;98567.69;;;36.16;37.72
10474;BME280;5284;50.446;7.904;2022-08-01T16:43:49;98558.72;;;32.91;42.21
10474;BME280;5284;50.446;7.904;2022-08-01T16:48:56;98556.44;;;34.82;39.32
10474;BME280;5284;50.446;7.904;2022-08-01T16:53:59;98557.81;;;35.71;36.97
10474;BME280;5284;50.446;7.904;2022-08-01T16:59:02;98555.53;;;33.38;39.82
10474;BME280;5284;50.446;7.904;2022-08-01T17:04:06;98563.59;;;34.88;38.43
10474;BME280;5284;50.446;7.904;2022-08-01T17:09:09;98555.16;;;32.90;41.17
10474;BME280;5284;50.446;7.904;2022-08-01T17:14:13;98567.16;;;31.71;42.68
10474;BME280;5284;50.446;7.904;2022-08-01T17:19:17;98565.97;;;31.31;43.40
10474;BME280;5284;50.446;7.904;2022-08-01T17:24:27;98558.22;;;29.34;46.95
10474;BME280;5284;50.446;7.904;2022-08-01T17:29:30;98562.34;;;28.13;49.37
10474;BME280;5284;50.446;7.904;2022-08-01T17:34:46;98555.41;;;27.65;51.00
10474;BME280;5284;50.446;7.904;2022-08-01T17:39:50;98549.56;;;26.97;52.23
10474;BME280;5284;50.446;7.904;2022-08-01T17:44:53;98543.97;;;26.45;53.31
10474;BME280;5284;50.446;7.904;2022-08-01T17:49:59;98550.78;;;25.89;55.16
10474;BME280;5284;50.446;7.904;2022-08-01T17:55:05;98558.13;;;25.64;55.63
10474;BME280;5284;50.446;7.904;2022-08-01T18:00:28;98553.94;;;25.19;57.23
10474;BME280;5284;50.446;7.904;2022-08-01T18:05:32;98561.59;;;24.97;57.23
10474;BME280;5284;50.446;7.904;2022-08-01T18:10:37;98563.03;;;24.69;58.10
10474;BME280;5284;50.446;7.904;2022-08-01T18:15:42;98562.94;;;24.51;59.16
10474;BME280;5284;50.446;7.904;2022-08-01T18:20:47;98570.09;;;24.33;59.81
10474;BME280;5284;50.446;7.904;2022-08-01T18:25:49;98569.31;;;24.26;59.68
10474;BME280;5284;50.446;7.904;2022-08-01T18:30:52;98571.25;;;24.12;60.43
10474;BME280;5284;50.446;7.904;2022-08-01T18:35:57;98569.63;;;23.98;61.25
10474;BME280;5284;50.446;7.904;2022-08-01T18:41:04;98579.28;;;23.88;60.69
10474;BME280;5284;50.446;7.904;2022-08-01T18:46:10;98574.28;;;23.72;61.70
10474;BME280;5284;50.446;7.904;2022-08-01T18:51:14;98585.81;;;23.54;62.36
10474;BME280;5284;50.446;7.904;2022-08-01T18:56:17;98580.59;;;23.40;62.67
10474;BME280;5284;50.446;7.904;2022-08-01T19:01:21;98586.03;;;23.21;64.01
10474;BME280;5284;50.446;7.904;2022-08-01T19:06:29;98593.50;;;23.06;63.56
10474;BME280;5284;50.446;7.904;2022-08-01T19:11:33;98601.22;;;22.83;64.49
10474;BME280;5284;50.446;7.904;2022-08-01T19:16:37;98604.91;;;22.62;65.34
10474;BME280;5284;50.446;7.904;2022-08-01T19:21:41;98614.03;;;22.42;65.22
10474;BME280;5284;50.446;7.904;2022-08-01T19:26:48;98616.63;;;22.22;65.99
10474;BME280;5284;50.446;7.904;2022-08-01T19:31:53;98631.22;;;22.08;66.67
10474;BME280;5284;50.446;7.904;2022-08-01T19:36:57;98639.28;;;21.95;66.73
10474;BME280;5284;50.446;7.904;2022-08-01T19:42:00;98648.38;;;21.81;67.63
10474;BME280;5284;50.446;7.904;2022-08-01T19:47:04;98643.50;;;21.71;67.71
10474;BME280;5284;50.446;7.904;2022-08-01T19:52:09;98646.91;;;21.58;67.91
10474;BME280;5284;50.446;7.904;2022-08-01T19:57:14;98645.78;;;21.46;68.99
10474;BME280;5284;50.446;7.904;2022-08-01T20:02:18;98653.78;;;21.33;69.80
10474;BME280;5284;50.446;7.904;2022-08-01T20:07:22;98656.81;;;21.24;70.81
10474;BME280;5284;50.446;7.904;2022-08-01T20:12:27;98657.16;;;21.14;70.18
10474;BME280;5284;50.446;7.904;2022-08-01T20:17:30;98650.56;;;21.02;71.52
10474;BME280;5284;50.446;7.904;2022-08-01T20:22:35;98658.97;;;20.86;73.64
10474;BME280;5284;50.446;7.904;2022-08-01T20:27:43;98671.66;;;20.71;74.78
10474;BME280;5284;50.446;7.904;2022-08-01T20:32:47;98669.94;;;20.49;77.07
10474;BME280;5284;50.446;7.904;2022-08-01T20:37:52;98669.38;;;20.39;77.01
10474;BME280;5284;50.446;7.904;2022-08-01T20:43:08;98688.38;;;20.25;79.28
10474;BME280;5284;50.446;7.904;2022-08-01T20:48:13;98686.97;;;20.14;77.72
10474;BME280;5284;50.446;7.904;2022-08-01T20:53:18;98683.50;;;20.06;79.50
10474;BME280;5284;50.446;7.904;2022-08-01T20:58:26;98685.88;;;19.72;86.57
10474;BME280;5284;50.446;7.904;2022-08-01T21:03:40;98685.09;;;19.64;87.75
10474;BME280;5284;50.446;7.904;2022-08-01T21:08:48;98684.41;;;19.47;89.39
10474;BME280;5284;50.446;7.904;2022-08-01T21:13:53;98687.03;;;19.41;87.94
10474;BME280;5284;50.446;7.904;2022-08-01T21:18:59;98697.88;;;19.33;85.52
10474;BME280;5284;50.446;7.904;2022-08-01T21:24:25;98713.22;;;19.18;85.75
10474;BME280;5284;50.446;7.904;2022-08-01T21:29:31;98703.13;;;19.04;86.61
10474;BME280;5284;50.446;7.904;2022-08-01T21:34:35;98718.09;;;18.92;87.81
10474;BME280;5284;50.446;7.904;2022-08-01T21:39:42;98715.44;;;18.84;87.89
10474;BME280;5284;50.446;7.904;2022-08-01T21:44:46;98710.97;;;18.68;93.18
10474;BME280;5284;50.446;7.904;2022-08-01T21:49:48;98708.00;;;18.55;96.56
10474;BME280;5284;50.446;7.904;2022-08-01T21:54:59;98707.66;;;18.50;96.79
10474;BME280;5284;50.446;7.904;2022-08-01T22:00:07;98701.84;;;18.39;98.96
10474;BME280;5284;50.446;7.904;2022-08-01T22:05:24;98715.34;;;18.31;98.75
10474;BME280;5284;50.446;7.904;2022-08-01T22:10:49;98705.56;;;18.22;98.16
10474;BME280;5284;50.446;7.904;2022-08-01T22:15:58;98720.28;;;18.12;93.75
10474;BME280;5284;50.446;7.904;2022-08-01T22:21:02;98717.59;;;18.04;94.08
10474;BME280;5284;50.446;7.904;2022-08-01T22:26:09;98720.66;;;18.01;94.45
10474;BME280;5284;50.446;7.904;2022-08-01T22:31:14;98714.75;;;17.89;97.07
10474;BME280;5284;50.446;7.904;2022-08-01T22:36:18;98709.06;;;17.76;99.06
10474;BME280;5284;50.446;7.904;2022-08-01T22:41:28;98716.16;;;17.69;100.00
10474;BME280;5284;50.446;7.904;2022-08-01T22:46:56;98714.97;;;17.64;98.83
10474;BME280;5284;50.446;7.904;2022-08-01T22:52:04;98715.16;;;17.54;95.86
10474;BME280;5284;50.446;7.904;2022-08-01T22:57:19;98721.56;;;17.45;100.00
10474;BME280;5284;50.446;7.904;2022-08-01T23:02:27;98724.22;;;17.29;100.00
10474;BME280;5284;50.446;7.904;2022-08-01T23:07:32;98722.38;;;17.22;100.00
10474;BME280;5284;50.446;7.904;2022-08-01T23:12:37;98730.41;;;17.06;100.00
10474;BME280;5284;50.446;7.904;2022-08-01T23:17:41;98733.31;;;17.04;100.00
10474;BME280;5284;50.446;7.904;2022-08-01T23:22:45;98733.94;;;16.98;100.00
10474;BME280;5284;50.446;7.904;2022-08-01T23:27:51;98737.28;;;16.92;100.00
10474;BME280;5284;50.446;7.904;2022-08-01T23:33:06;98738.97;;;16.86;100.00
10474;BME280;5284;50.446;7.904;2022-08-01T23:38:09;98732.38;;;16.72;100.00
10474;BME280;5284;50.446;7.904;2022-08-01T23:43:13;98730.34;;;16.66;100.00
10474;BME280;5284;50.446;7.904;2022-08-01T23:48:18;98728.09;;;16.54;100.00
10474;BME280;5284;50.446;7.904;2022-08-01T23:53:21;98724.84;;;16.42;100.00
10474;BME280;5284;50.446;7.904;2022-08-01T23:58:26;98728.56;;;16.41;100.00
